sensor_id;sensor_type;location;lat;lon;timestamp;temperature;humidity
1956;DHT22;978;48.314;11.562;2023-07-20T00:01:42;23.40;87.20
1956;DHT22;978;48.314;11.562;2023-07-20T00:04:10;23.50;87.20
1956;DHT22;978;48.314;11.562;2023-07-20T00:06:38;23.50;87.20
1956;DHT22;978;48.314;11.562;2023-07-20T00:09:06;23.50;87.20
1956;DHT22;978;48.314;11.562;2023-07-20T00:11:35;23.50;87.20
1956;DHT22;978;48.314;11.562;2023-07-20T00:14:02;23.50;87.20
1956;DHT22;978;48.314;11.562;2023-07-20T00:16:29;23.50;87.20
1956;DHT22;978;48.314;11.562;2023-07-20T00:18:56;23.50;87.10
1956;DHT22;978;48.314;11.562;2023-07-20T00:21:23;23.50;87.10
1956;DHT22;978;48.314;11.562;2023-07-20T00:23:51;23.50;87.10
1956;DHT22;978;48.314;11.562;2023-07-20T00:26:18;23.50;87.10
1956;DHT22;978;48.314;11.562;2023-07-20T00:28:45;23.50;87.10
1956;DHT22;978;48.314;11.562;2023-07-20T00:31:11;23.40;87.00
1956;DHT22;978;48.314;11.562;2023-07-20T00:33:38;23.50;87.10
1956;DHT22;978;48.314;11.562;2023-07-20T00:36:05;23.50;87.00
1956;DHT22;978;48.314;11.562;2023-07-20T00:38:32;23.50;87.00
1956;DHT22;978;48.314;11.562;2023-07-20T00:41:03;23.50;87.00
1956;DHT22;978;48.314;11.562;2023-07-20T00:43:32;23.70;87.10
1956;DHT22;978;48.314;11.562;2023-07-20T00:45:59;23.50;87.00
1956;DHT22;978;48.314;11.562;2023-07-20T00:48:26;23.50;87.00
1956;DHT22;978;48.314;11.562;2023-07-20T00:50:53;23.50;86.90
1956;DHT22;978;48.314;11.562;2023-07-20T00:53:19;23.50;86.90
1956;DHT22;978;48.314;11.562;2023-07-20T00:55:46;23.50;86.90
1956;DHT22;978;48.314;11.562;2023-07-20T00:58:15;23.50;86.90
1956;DHT22;978;48.314;11.562;2023-07-20T01:00:42;23.60;87.00
1956;DHT22;978;48.314;11.562;2023-07-20T01:03:09;23.50;86.90
1956;DHT22;978;48.314;11.562;2023-07-20T01:05:47;23.40;86.80
1956;DHT22;978;48.314;11.562;2023-07-20T01:08:20;23.50;86.90
1956;DHT22;978;48.314;11.562;2023-07-20T01:10:53;23.50;86.80
1956;DHT22;978;48.314;11.562;2023-07-20T01:13:23;23.50;86.80
1956;DHT22;978;48.314;11.562;2023-07-20T01:15:57;23.50;86.80
1956;DHT22;978;48.314;11.562;2023-07-20T01:18:28;23.50;86.80
1956;DHT22;978;48.314;11.562;2023-07-20T01:21:01;23.50;86.80
1956;DHT22;978;48.314;11.562;2023-07-20T01:23:53;23.40;86.70
1956;DHT22;978;48.314;11.562;2023-07-20T01:29:55;23.50;86.70
1956;DHT22;978;48.314;11.562;2023-07-20T01:32:44;23.50;86.80
1956;DHT22;978;48.314;11.562;2023-07-20T01:35:12;23.40;86.70
1956;DHT22;978;48.314;11.562;2023-07-20T01:37:42;23.50;86.70
1956;DHT22;978;48.314;11.562;2023-07-20T01:40:11;23.50;86.70
1956;DHT22;978;48.314;11.562;2023-07-20T01:42:43;23.50;86.70
1956;DHT22;978;48.314;11.562;2023-07-20T01:45:11;23.50;86.70
1956;DHT22;978;48.314;11.562;2023-07-20T01:47:38;23.50;86.60
1956;DHT22;978;48.314;11.562;2023-07-20T01:50:07;23.50;86.70
1956;DHT22;978;48.314;11.562;2023-07-20T01:52:36;23.50;86.70
1956;DHT22;978;48.314;11.562;2023-07-20T01:55:03;23.50;86.60
1956;DHT22;978;48.314;11.562;2023-07-20T01:57:31;23.50;86.60
1956;DHT22;978;48.314;11.562;2023-07-20T01:59:58;23.50;86.60
1956;DHT22;978;48.314;11.562;2023-07-20T02:02:27;23.40;86.50
1956;DHT22;978;48.314;11.562;2023-07-20T02:04:54;23.50;86.60
1956;DHT22;978;48.314;11.562;2023-07-20T02:07:22;23.50;86.60
1956;DHT22;978;48.314;11.562;2023-07-20T02:09:53;23.50;86.60
1956;DHT22;978;48.314;11.562;2023-07-20T02:12:20;23.50;86.60
1956;DHT22;978;48.314;11.562;2023-07-20T02:14:47;23.40;86.50
1956;DHT22;978;48.314;11.562;2023-07-20T02:17:16;23.50;86.50
1956;DHT22;978;48.314;11.562;2023-07-20T02:19:42;23.50;86.50
1956;DHT22;978;48.314;11.562;2023-07-20T02:22:09;23.50;86.50
1956;DHT22;978;48.314;11.562;2023-07-20T02:24:39;23.50;86.50
1956;DHT22;978;48.314;11.562;2023-07-20T02:27:06;23.40;86.40
1956;DHT22;978;48.314;11.562;2023-07-20T02:29:32;23.50;87.00
1956;DHT22;978;48.314;11.562;2023-07-20T02:32:00;23.50;86.40
1956;DHT22;978;48.314;11.562;2023-07-20T02:34:30;23.50;86.40
1956;DHT22;978;48.314;11.562;2023-07-20T02:36:56;23.50;87.00
1956;DHT22;978;48.314;11.562;2023-07-20T02:39:27;23.50;86.30
1956;DHT22;978;48.314;11.562;2023-07-20T02:41:56;23.50;86.30
1956;DHT22;978;48.314;11.562;2023-07-20T02:44:23;23.50;86.30
1956;DHT22;978;48.314;11.562;2023-07-20T02:46:49;23.90;86.50
1956;DHT22;978;48.314;11.562;2023-07-20T02:49:18;23.50;86.30
1956;DHT22;978;48.314;11.562;2023-07-20T02:51:47;23.50;86.20
1956;DHT22;978;48.314;11.562;2023-07-20T02:54:14;23.50;86.30
1956;DHT22;978;48.314;11.562;2023-07-20T02:56:42;23.50;86.20
1956;DHT22;978;48.314;11.562;2023-07-20T02:59:13;23.50;86.20
1956;DHT22;978;48.314;11.562;2023-07-20T03:01:40;23.50;86.20
1956;DHT22;978;48.314;11.562;2023-07-20T03:04:08;23.50;86.20
1956;DHT22;978;48.314;11.562;2023-07-20T03:06:37;23.50;86.20
1956;DHT22;978;48.314;11.562;2023-07-20T03:09:04;23.50;86.20
1956;DHT22;978;48.314;11.562;2023-07-20T03:11:33;23.50;86.20
1956;DHT22;978;48.314;11.562;2023-07-20T03:14:00;23.50;86.10
1956;DHT22;978;48.314;11.562;2023-07-20T03:16:28;23.40;86.10
1956;DHT22;978;48.314;11.562;2023-07-20T03:18:58;23.50;86.10
1956;DHT22;978;48.314;11.562;2023-07-20T03:21:26;23.50;86.10
1956;DHT22;978;48.314;11.562;2023-07-20T03:23:54;23.60;86.10
1956;DHT22;978;48.314;11.562;2023-07-20T03:26:21;23.50;86.00
1956;DHT22;978;48.314;11.562;2023-07-20T03:28:50;23.50;86.00
1956;DHT22;978;48.314;11.562;2023-07-20T03:31:18;23.50;86.00
1956;DHT22;978;48.314;11.562;2023-07-20T03:33:48;23.50;86.00
1956;DHT22;978;48.314;11.562;2023-07-20T03:36:15;23.40;85.90
1956;DHT22;978;48.314;11.562;2023-07-20T03:38:43;23.50;85.90
1956;DHT22;978;48.314;11.562;2023-07-20T03:41:09;23.50;85.90
1956;DHT22;978;48.314;11.562;2023-07-20T03:43:38;23.50;85.90
1956;DHT22;978;48.314;11.562;2023-07-20T03:46:04;23.40;85.80
1956;DHT22;978;48.314;11.562;2023-07-20T03:48:34;23.50;85.90
1956;DHT22;978;48.314;11.562;2023-07-20T03:51:05;23.50;85.90
1956;DHT22;978;48.314;11.562;2023-07-20T03:53:31;23.40;85.80
1956;DHT22;978;48.314;11.562;2023-07-20T03:56:00;23.50;85.80
1956;DHT22;978;48.314;11.562;2023-07-20T03:58:27;23.40;85.70
1956;DHT22;978;48.314;11.562;2023-07-20T04:00:57;23.40;85.70
1956;DHT22;978;48.314;11.562;2023-07-20T04:03:24;23.50;85.70
1956;DHT22;978;48.314;11.562;2023-07-20T04:05:53;23.70;85.80
1956;DHT22;978;48.314;11.562;2023-07-20T04:08:24;23.50;85.70
1956;DHT22;978;48.314;11.562;2023-07-20T04:10:51;23.40;85.60
1956;DHT22;978;48.314;11.562;2023-07-20T04:13:18;23.50;85.70
1956;DHT22;978;48.314;11.562;2023-07-20T04:15:45;23.40;86.20
1956;DHT22;978;48.314;11.562;2023-07-20T04:18:13;23.50;85.60
1956;DHT22;978;48.314;11.562;2023-07-20T04:20:39;23.40;85.60
1956;DHT22;978;48.314;11.562;2023-07-20T04:23:07;23.50;85.60
1956;DHT22;978;48.314;11.562;2023-07-20T04:25:39;23.50;85.60
1956;DHT22;978;48.314;11.562;2023-07-20T04:28:06;23.40;85.50
1956;DHT22;978;48.314;11.562;2023-07-20T04:30:35;23.40;85.40
1956;DHT22;978;48.314;11.562;2023-07-20T04:33:03;23.50;85.50
1956;DHT22;978;48.314;11.562;2023-07-20T04:35:50;23.50;85.50
1956;DHT22;978;48.314;11.562;2023-07-20T04:38:21;23.50;85.40
1956;DHT22;978;48.314;11.562;2023-07-20T04:40:53;23.40;85.30
1956;DHT22;978;48.314;11.562;2023-07-20T04:43:20;23.50;85.40
1956;DHT22;978;48.314;11.562;2023-07-20T04:45:46;23.40;85.30
1956;DHT22;978;48.314;11.562;2023-07-20T04:48:16;23.40;85.30
1956;DHT22;978;48.314;11.562;2023-07-20T04:50:45;23.50;85.40
1956;DHT22;978;48.314;11.562;2023-07-20T04:53:12;23.40;85.30
1956;DHT22;978;48.314;11.562;2023-07-20T04:55:48;23.40;85.30
1956;DHT22;978;48.314;11.562;2023-07-20T04:58:22;23.40;85.20
1956;DHT22;978;48.314;11.562;2023-07-20T05:00:49;23.50;85.30
1956;DHT22;978;48.314;11.562;2023-07-20T05:03:17;23.50;85.30
1956;DHT22;978;48.314;11.562;2023-07-20T05:05:46;23.50;85.90
1956;DHT22;978;48.314;11.562;2023-07-20T05:08:13;23.40;85.20
1956;DHT22;978;48.314;11.562;2023-07-20T05:10:41;23.50;85.30
1956;DHT22;978;48.314;11.562;2023-07-20T05:13:09;23.50;85.20
1956;DHT22;978;48.314;11.562;2023-07-20T05:15:41;23.40;85.20
1956;DHT22;978;48.314;11.562;2023-07-20T05:18:09;23.40;85.20
1956;DHT22;978;48.314;11.562;2023-07-20T05:20:37;23.40;85.10
1956;DHT22;978;48.314;11.562;2023-07-20T05:23:05;23.40;85.10
1956;DHT22;978;48.314;11.562;2023-07-20T05:25:35;23.40;85.10
1956;DHT22;978;48.314;11.562;2023-07-20T05:28:02;23.50;85.10
1956;DHT22;978;48.314;11.562;2023-07-20T05:30:29;23.40;85.10
1956;DHT22;978;48.314;11.562;2023-07-20T05:32:59;23.40;85.00
1956;DHT22;978;48.314;11.562;2023-07-20T05:35:27;23.40;85.00
1956;DHT22;978;48.314;11.562;2023-07-20T05:37:55;23.40;85.00
1956;DHT22;978;48.314;11.562;2023-07-20T05:40:22;23.40;84.90
1956;DHT22;978;48.314;11.562;2023-07-20T05:42:49;23.40;85.00
1956;DHT22;978;48.314;11.562;2023-07-20T05:45:17;23.70;85.10
1956;DHT22;978;48.314;11.562;2023-07-20T05:47:46;23.40;84.90
1956;DHT22;978;48.314;11.562;2023-07-20T05:50:15;23.40;84.90
1956;DHT22;978;48.314;11.562;2023-07-20T05:52:43;23.50;84.90
1956;DHT22;978;48.314;11.562;2023-07-20T05:55:13;23.40;84.90
1956;DHT22;978;48.314;11.562;2023-07-20T05:57:41;23.50;84.90
1956;DHT22;978;48.314;11.562;2023-07-20T06:00:11;23.50;84.90
1956;DHT22;978;48.314;11.562;2023-07-20T06:02:40;23.40;84.80
1956;DHT22;978;48.314;11.562;2023-07-20T06:05:08;23.50;84.90
1956;DHT22;978;48.314;11.562;2023-07-20T06:07:38;23.50;84.90
1956;DHT22;978;48.314;11.562;2023-07-20T06:10:07;23.40;84.80
1956;DHT22;978;48.314;11.562;2023-07-20T06:12:34;23.40;84.80
1956;DHT22;978;48.314;11.562;2023-07-20T06:15:03;23.40;84.80
1956;DHT22;978;48.314;11.562;2023-07-20T06:17:31;23.40;84.80
1956;DHT22;978;48.314;11.562;2023-07-20T06:19:58;23.40;84.80
1956;DHT22;978;48.314;11.562;2023-07-20T06:22:26;23.50;84.80
1956;DHT22;978;48.314;11.562;2023-07-20T06:24:54;23.40;84.80
1956;DHT22;978;48.314;11.562;2023-07-20T06:27:23;23.40;84.80
1956;DHT22;978;48.314;11.562;2023-07-20T06:29:51;23.50;84.80
1956;DHT22;978;48.314;11.562;2023-07-20T06:32:18;23.40;84.30
1956;DHT22;978;48.314;11.562;2023-07-20T06:34:46;23.40;83.00
1956;DHT22;978;48.314;11.562;2023-07-20T06:37:14;23.40;82.00
1956;DHT22;978;48.314;11.562;2023-07-20T06:39:41;23.40;81.40
1956;DHT22;978;48.314;11.562;2023-07-20T06:42:09;23.40;80.80
1956;DHT22;978;48.314;11.562;2023-07-20T06:44:37;23.40;80.10
1956;DHT22;978;48.314;11.562;2023-07-20T06:47:05;23.40;79.80
1956;DHT22;978;48.314;11.562;2023-07-20T06:49:33;23.40;79.30
1956;DHT22;978;48.314;11.562;2023-07-20T06:52:01;23.40;79.00
1956;DHT22;978;48.314;11.562;2023-07-20T06:54:28;23.40;78.90
1956;DHT22;978;48.314;11.562;2023-07-20T06:56:56;23.40;78.50
1956;DHT22;978;48.314;11.562;2023-07-20T06:59:24;23.40;78.30
1956;DHT22;978;48.314;11.562;2023-07-20T07:01:52;23.40;78.10
1956;DHT22;978;48.314;11.562;2023-07-20T07:04:18;23.40;77.90
1956;DHT22;978;48.314;11.562;2023-07-20T07:06:47;23.40;77.80
1956;DHT22;978;48.314;11.562;2023-07-20T07:09:15;23.40;77.70
1956;DHT22;978;48.314;11.562;2023-07-20T07:11:41;23.40;77.90
1956;DHT22;978;48.314;11.562;2023-07-20T07:14:10;23.40;78.10
1956;DHT22;978;48.314;11.562;2023-07-20T07:16:38;23.40;78.50
1956;DHT22;978;48.314;11.562;2023-07-20T07:19:05;23.40;78.70
1956;DHT22;978;48.314;11.562;2023-07-20T07:21:35;23.40;79.00
1956;DHT22;978;48.314;11.562;2023-07-20T07:24:02;23.40;79.40
1956;DHT22;978;48.314;11.562;2023-07-20T07:26:30;23.40;79.60
1956;DHT22;978;48.314;11.562;2023-07-20T07:28:57;23.40;79.80
1956;DHT22;978;48.314;11.562;2023-07-20T07:31:26;23.40;80.10
1956;DHT22;978;48.314;11.562;2023-07-20T07:33:55;23.40;80.40
1956;DHT22;978;48.314;11.562;2023-07-20T07:36:24;23.40;80.70
1956;DHT22;978;48.314;11.562;2023-07-20T07:38:50;23.40;81.80
1956;DHT22;978;48.314;11.562;2023-07-20T07:41:21;23.40;81.50
1956;DHT22;978;48.314;11.562;2023-07-20T07:43:48;23.40;81.60
1956;DHT22;978;48.314;11.562;2023-07-20T07:46:16;23.40;81.80
1956;DHT22;978;48.314;11.562;2023-07-20T07:48:43;23.40;82.40
1956;DHT22;978;48.314;11.562;2023-07-20T07:51:11;23.40;81.90
1956;DHT22;978;48.314;11.562;2023-07-20T07:53:40;23.40;82.60
1956;DHT22;978;48.314;11.562;2023-07-20T07:56:10;23.40;82.00
1956;DHT22;978;48.314;11.562;2023-07-20T07:58:36;23.40;82.20
1956;DHT22;978;48.314;11.562;2023-07-20T08:01:04;23.40;82.10
1956;DHT22;978;48.314;11.562;2023-07-20T08:03:32;23.40;82.20
1956;DHT22;978;48.314;11.562;2023-07-20T08:06:01;23.40;82.20
1956;DHT22;978;48.314;11.562;2023-07-20T08:08:31;23.40;82.40
1956;DHT22;978;48.314;11.562;2023-07-20T08:11:01;23.40;82.40
1956;DHT22;978;48.314;11.562;2023-07-20T08:13:31;23.40;82.30
1956;DHT22;978;48.314;11.562;2023-07-20T08:15:59;23.40;82.30
1956;DHT22;978;48.314;11.562;2023-07-20T08:18:28;23.40;82.30
1956;DHT22;978;48.314;11.562;2023-07-20T08:20:56;23.40;82.20
1956;DHT22;978;48.314;11.562;2023-07-20T08:23:24;23.40;82.30
1956;DHT22;978;48.314;11.562;2023-07-20T08:25:52;23.40;82.40
1956;DHT22;978;48.314;11.562;2023-07-20T08:28:20;23.40;82.40
1956;DHT22;978;48.314;11.562;2023-07-20T08:30:49;23.40;82.50
1956;DHT22;978;48.314;11.562;2023-07-20T08:33:18;23.40;82.60
1956;DHT22;978;48.314;11.562;2023-07-20T08:35:47;23.40;82.60
1956;DHT22;978;48.314;11.562;2023-07-20T08:38:14;23.40;82.70
1956;DHT22;978;48.314;11.562;2023-07-20T08:40:42;23.40;82.70
1956;DHT22;978;48.314;11.562;2023-07-20T08:43:15;23.40;82.80
1956;DHT22;978;48.314;11.562;2023-07-20T08:45:46;24.00;83.20
1956;DHT22;978;48.314;11.562;2023-07-20T08:48:15;23.40;82.90
1956;DHT22;978;48.314;11.562;2023-07-20T08:50:46;23.40;83.00
1956;DHT22;978;48.314;11.562;2023-07-20T08:53:15;23.40;83.00
1956;DHT22;978;48.314;11.562;2023-07-20T08:55:42;23.40;83.00
1956;DHT22;978;48.314;11.562;2023-07-20T08:58:13;23.40;83.10
1956;DHT22;978;48.314;11.562;2023-07-20T09:00:42;23.40;83.10
1956;DHT22;978;48.314;11.562;2023-07-20T09:03:12;22.00;82.40
1956;DHT22;978;48.314;11.562;2023-07-20T09:05:44;23.40;83.20
1956;DHT22;978;48.314;11.562;2023-07-20T09:08:12;23.40;83.20
1956;DHT22;978;48.314;11.562;2023-07-20T09:10:39;23.40;83.30
1956;DHT22;978;48.314;11.562;2023-07-20T09:13:06;23.40;83.30
1956;DHT22;978;48.314;11.562;2023-07-20T09:15:39;23.40;83.30
1956;DHT22;978;48.314;11.562;2023-07-20T09:18:12;23.40;83.40
1956;DHT22;978;48.314;11.562;2023-07-20T09:20:40;23.40;83.40
1956;DHT22;978;48.314;11.562;2023-07-20T09:23:08;23.40;83.40
1956;DHT22;978;48.314;11.562;2023-07-20T09:25:36;23.40;83.40
1956;DHT22;978;48.314;11.562;2023-07-20T09:28:03;23.40;83.50
1956;DHT22;978;48.314;11.562;2023-07-20T09:30:31;23.40;83.50
1956;DHT22;978;48.314;11.562;2023-07-20T09:33:00;23.40;83.50
1956;DHT22;978;48.314;11.562;2023-07-20T09:35:29;23.40;83.50
1956;DHT22;978;48.314;11.562;2023-07-20T09:37:59;23.40;83.60
1956;DHT22;978;48.314;11.562;2023-07-20T09:40:26;23.40;83.50
1956;DHT22;978;48.314;11.562;2023-07-20T09:42:55;23.40;83.60
1956;DHT22;978;48.314;11.562;2023-07-20T09:45:29;23.40;83.60
1956;DHT22;978;48.314;11.562;2023-07-20T09:48:03;23.50;83.70
1956;DHT22;978;48.314;11.562;2023-07-20T09:50:30;23.40;83.70
1956;DHT22;978;48.314;11.562;2023-07-20T09:52:57;23.40;83.70
1956;DHT22;978;48.314;11.562;2023-07-20T09:55:26;23.40;83.70
1956;DHT22;978;48.314;11.562;2023-07-20T09:57:53;23.40;83.70
1956;DHT22;978;48.314;11.562;2023-07-20T10:00:21;23.40;83.70
1956;DHT22;978;48.314;11.562;2023-07-20T10:02:49;23.40;83.70
1956;DHT22;978;48.314;11.562;2023-07-20T10:05:19;23.40;83.80
1956;DHT22;978;48.314;11.562;2023-07-20T10:07:48;23.40;83.70
1956;DHT22;978;48.314;11.562;2023-07-20T10:10:18;23.60;83.80
1956;DHT22;978;48.314;11.562;2023-07-20T10:12:48;23.40;84.20
1956;DHT22;978;48.314;11.562;2023-07-20T10:15:19;23.40;83.60
1956;DHT22;978;48.314;11.562;2023-07-20T10:17:55;23.40;83.50
1956;DHT22;978;48.314;11.562;2023-07-20T10:20:25;23.40;83.50
1956;DHT22;978;48.314;11.562;2023-07-20T10:22:53;23.50;83.50
1956;DHT22;978;48.314;11.562;2023-07-20T10:25:22;23.40;83.40
1956;DHT22;978;48.314;11.562;2023-07-20T10:27:51;23.40;83.40
1956;DHT22;978;48.314;11.562;2023-07-20T10:30:18;23.40;83.30
1956;DHT22;978;48.314;11.562;2023-07-20T10:32:47;23.40;83.30
1956;DHT22;978;48.314;11.562;2023-07-20T10:35:17;23.40;83.30
1956;DHT22;978;48.314;11.562;2023-07-20T10:37:51;23.40;83.20
1956;DHT22;978;48.314;11.562;2023-07-20T10:43:09;23.40;83.20
1956;DHT22;978;48.314;11.562;2023-07-20T10:45:41;23.40;83.10
1956;DHT22;978;48.314;11.562;2023-07-20T10:48:16;23.40;83.10
1956;DHT22;978;48.314;11.562;2023-07-20T10:50:45;23.40;83.10
1956;DHT22;978;48.314;11.562;2023-07-20T10:53:18;23.40;83.00
1956;DHT22;978;48.314;11.562;2023-07-20T10:55:44;23.40;83.00
1956;DHT22;978;48.314;11.562;2023-07-20T10:58:13;23.40;83.00
1956;DHT22;978;48.314;11.562;2023-07-20T11:00:57;23.40;82.90
1956;DHT22;978;48.314;11.562;2023-07-20T11:03:31;23.40;82.90
1956;DHT22;978;48.314;11.562;2023-07-20T11:05:58;23.50;83.00
1956;DHT22;978;48.314;11.562;2023-07-20T11:08:40;23.40;82.90
1956;DHT22;978;48.314;11.562;2023-07-20T11:11:24;23.40;82.90
1956;DHT22;978;48.314;11.562;2023-07-20T11:13:55;23.40;82.90
1956;DHT22;978;48.314;11.562;2023-07-20T11:16:33;23.40;82.90
1956;DHT22;978;48.314;11.562;2023-07-20T11:19:01;23.40;82.80
1956;DHT22;978;48.314;11.562;2023-07-20T11:21:28;23.40;82.90
1956;DHT22;978;48.314;11.562;2023-07-20T11:23:56;23.40;82.80
1956;DHT22;978;48.314;11.562;2023-07-20T11:26:23;23.40;82.80
1956;DHT22;978;48.314;11.562;2023-07-20T11:28:51;23.40;82.80
1956;DHT22;978;48.314;11.562;2023-07-20T11:31:19;23.40;82.80
1956;DHT22;978;48.314;11.562;2023-07-20T11:33:46;23.40;82.80
1956;DHT22;978;48.314;11.562;2023-07-20T11:36:14;23.40;82.80
1956;DHT22;978;48.314;11.562;2023-07-20T11:38:41;23.40;82.70
1956;DHT22;978;48.314;11.562;2023-07-20T11:41:14;23.40;82.70
1956;DHT22;978;48.314;11.562;2023-07-20T11:43:41;23.40;82.80
1956;DHT22;978;48.314;11.562;2023-07-20T11:46:09;23.40;82.70
1956;DHT22;978;48.314;11.562;2023-07-20T11:48:36;23.40;82.70
1956;DHT22;978;48.314;11.562;2023-07-20T11:51:04;23.40;82.70
1956;DHT22;978;48.314;11.562;2023-07-20T11:53:31;23.40;82.70
1956;DHT22;978;48.314;11.562;2023-07-20T11:55:58;23.40;82.70
1956;DHT22;978;48.314;11.562;2023-07-20T11:58:30;23.40;82.70
1956;DHT22;978;48.314;11.562;2023-07-20T12:00:58;23.50;82.80
1956;DHT22;978;48.314;11.562;2023-07-20T12:03:25;23.80;83.00
1956;DHT22;978;48.314;11.562;2023-07-20T12:05:53;23.40;82.70
1956;DHT22;978;48.314;11.562;2023-07-20T12:08:20;23.40;82.70
1956;DHT22;978;48.314;11.562;2023-07-20T12:10:48;23.40;82.70
1956;DHT22;978;48.314;11.562;2023-07-20T12:13:16;23.40;82.70
1956;DHT22;978;48.314;11.562;2023-07-20T12:15:44;23.40;82.70
1956;DHT22;978;48.314;11.562;2023-07-20T12:18:16;23.40;82.70
1956;DHT22;978;48.314;11.562;2023-07-20T12:20:43;23.40;82.70
1956;DHT22;978;48.314;11.562;2023-07-20T12:23:12;23.40;82.70
1956;DHT22;978;48.314;11.562;2023-07-20T12:25:40;23.40;82.70
1956;DHT22;978;48.314;11.562;2023-07-20T12:28:10;23.40;82.70
1956;DHT22;978;48.314;11.562;2023-07-20T12:30:41;23.40;82.70
1956;DHT22;978;48.314;11.562;2023-07-20T12:33:14;23.40;82.70
1956;DHT22;978;48.314;11.562;2023-07-20T12:35:42;23.40;82.70
1956;DHT22;978;48.314;11.562;2023-07-20T12:38:10;23.40;82.70
1956;DHT22;978;48.314;11.562;2023-07-20T12:40:37;23.40;82.70
1956;DHT22;978;48.314;11.562;2023-07-20T12:43:06;23.40;82.70
1956;DHT22;978;48.314;11.562;2023-07-20T12:45:36;23.40;82.70
1956;DHT22;978;48.314;11.562;2023-07-20T12:48:05;23.40;82.70
1956;DHT22;978;48.314;11.562;2023-07-20T12:50:35;23.40;82.70
1956;DHT22;978;48.314;11.562;2023-07-20T12:53:02;23.40;82.70
1956;DHT22;978;48.314;11.562;2023-07-20T12:55:29;23.60;82.80
1956;DHT22;978;48.314;11.562;2023-07-20T12:57:57;23.40;82.70
1956;DHT22;978;48.314;11.562;2023-07-20T13:00:28;23.40;82.70
1956;DHT22;978;48.314;11.562;2023-07-20T13:02:55;23.40;82.60
1956;DHT22;978;48.314;11.562;2023-07-20T13:05:22;23.40;82.60
1956;DHT22;978;48.314;11.562;2023-07-20T13:07:51;23.40;82.60
1956;DHT22;978;48.314;11.562;2023-07-20T13:10:19;23.40;82.60
1956;DHT22;978;48.314;11.562;2023-07-20T13:12:46;23.40;82.60
1956;DHT22;978;48.314;11.562;2023-07-20T13:15:13;23.40;82.60
1956;DHT22;978;48.314;11.562;2023-07-20T13:17:41;23.50;82.60
1956;DHT22;978;48.314;11.562;2023-07-20T13:20:10;23.50;82.60
1956;DHT22;978;48.314;11.562;2023-07-20T13:22:37;23.40;82.60
1956;DHT22;978;48.314;11.562;2023-07-20T13:25:08;23.40;82.60
1956;DHT22;978;48.314;11.562;2023-07-20T13:27:36;23.40;82.60
1956;DHT22;978;48.314;11.562;2023-07-20T13:30:06;23.40;82.60
1956;DHT22;978;48.314;11.562;2023-07-20T13:32:36;23.40;82.60
1956;DHT22;978;48.314;11.562;2023-07-20T13:35:05;23.40;82.60
1956;DHT22;978;48.314;11.562;2023-07-20T13:37:34;23.40;82.60
1956;DHT22;978;48.314;11.562;2023-07-20T13:40:02;23.40;82.60
1956;DHT22;978;48.314;11.562;2023-07-20T13:42:33;23.40;82.60
1956;DHT22;978;48.314;11.562;2023-07-20T13:45:01;23.40;82.60
1956;DHT22;978;48.314;11.562;2023-07-20T13:47:28;23.40;82.60
1956;DHT22;978;48.314;11.562;2023-07-20T13:49:56;23.40;82.60
1956;DHT22;978;48.314;11.562;2023-07-20T13:52:24;23.50;82.70
1956;DHT22;978;48.314;11.562;2023-07-20T13:54:52;23.40;82.60
1956;DHT22;978;48.314;11.562;2023-07-20T13:57:19;23.40;82.70
1956;DHT22;978;48.314;11.562;2023-07-20T13:59:48;23.40;82.60
1956;DHT22;978;48.314;11.562;2023-07-20T14:02:16;23.40;82.60
1956;DHT22;978;48.314;11.562;2023-07-20T14:04:43;23.50;82.60
1956;DHT22;978;48.314;11.562;2023-07-20T14:07:11;23.40;82.60
1956;DHT22;978;48.314;11.562;2023-07-20T14:09:40;25.40;83.70
1956;DHT22;978;48.314;11.562;2023-07-20T14:12:09;23.40;82.60
1956;DHT22;978;48.314;11.562;2023-07-20T14:14:39;23.40;82.60
1956;DHT22;978;48.314;11.562;2023-07-20T14:17:10;23.40;82.60
1956;DHT22;978;48.314;11.562;2023-07-20T14:19:39;23.40;82.60
1956;DHT22;978;48.314;11.562;2023-07-20T14:22:07;23.40;82.60
1956;DHT22;978;48.314;11.562;2023-07-20T14:24:34;23.40;82.60
1956;DHT22;978;48.314;11.562;2023-07-20T14:27:02;23.40;82.60
1956;DHT22;978;48.314;11.562;2023-07-20T14:29:29;23.40;82.70
1956;DHT22;978;48.314;11.562;2023-07-20T14:31:57;23.60;82.80
1956;DHT22;978;48.314;11.562;2023-07-20T14:34:28;23.30;82.70
1956;DHT22;978;48.314;11.562;2023-07-20T14:36:55;23.40;82.80
1956;DHT22;978;48.314;11.562;2023-07-20T14:39:22;23.40;82.70
1956;DHT22;978;48.314;11.562;2023-07-20T14:41:50;23.50;82.90
1956;DHT22;978;48.314;11.562;2023-07-20T14:44:17;23.40;82.80
1956;DHT22;978;48.314;11.562;2023-07-20T14:46:44;23.40;82.80
1956;DHT22;978;48.314;11.562;2023-07-20T14:49:10;23.40;82.80
1956;DHT22;978;48.314;11.562;2023-07-20T14:51:41;23.40;82.80
1956;DHT22;978;48.314;11.562;2023-07-20T14:54:13;23.40;82.80
1956;DHT22;978;48.314;11.562;2023-07-20T14:56:49;23.50;82.90
1956;DHT22;978;48.314;11.562;2023-07-20T14:59:17;23.40;82.80
1956;DHT22;978;48.314;11.562;2023-07-20T15:01:44;23.50;82.90
1956;DHT22;978;48.314;11.562;2023-07-20T15:04:13;23.40;82.80
1956;DHT22;978;48.314;11.562;2023-07-20T15:06:43;23.50;82.90
1956;DHT22;978;48.314;11.562;2023-07-20T15:09:11;23.40;82.90
1956;DHT22;978;48.314;11.562;2023-07-20T15:11:38;23.40;82.90
1956;DHT22;978;48.314;11.562;2023-07-20T15:14:05;23.50;82.90
1956;DHT22;978;48.314;11.562;2023-07-20T15:16:32;23.40;83.00
1956;DHT22;978;48.314;11.562;2023-07-20T15:19:02;23.40;82.90
1956;DHT22;978;48.314;11.562;2023-07-20T15:21:28;23.40;82.90
1956;DHT22;978;48.314;11.562;2023-07-20T15:23:59;23.40;82.90
1956;DHT22;978;48.314;11.562;2023-07-20T15:26:26;23.40;83.00
1956;DHT22;978;48.314;11.562;2023-07-20T15:28:54;23.50;83.00
1956;DHT22;978;48.314;11.562;2023-07-20T15:31:22;23.40;82.90
1956;DHT22;978;48.314;11.562;2023-07-20T15:33:49;23.50;83.00
1956;DHT22;978;48.314;11.562;2023-07-20T15:36:17;23.40;82.90
1956;DHT22;978;48.314;11.562;2023-07-20T15:38:44;23.40;82.90
1956;DHT22;978;48.314;11.562;2023-07-20T15:41:13;23.40;82.90
1956;DHT22;978;48.314;11.562;2023-07-20T15:43:41;23.40;83.00
1956;DHT22;978;48.314;11.562;2023-07-20T15:46:43;23.40;82.90
1956;DHT22;978;48.314;11.562;2023-07-20T15:49:10;23.40;82.90
1956;DHT22;978;48.314;11.562;2023-07-20T15:51:37;23.40;82.90
1956;DHT22;978;48.314;11.562;2023-07-20T15:54:09;23.50;82.90
1956;DHT22;978;48.314;11.562;2023-07-20T15:56:39;23.50;82.90
1956;DHT22;978;48.314;11.562;2023-07-20T15:59:11;23.40;82.80
1956;DHT22;978;48.314;11.562;2023-07-20T16:01:41;23.40;82.70
1956;DHT22;978;48.314;11.562;2023-07-20T16:04:12;23.40;82.70
1956;DHT22;978;48.314;11.562;2023-07-20T16:06:41;23.50;82.80
1956;DHT22;978;48.314;11.562;2023-07-20T16:09:09;23.60;82.80
1956;DHT22;978;48.314;11.562;2023-07-20T16:11:37;23.40;82.60
1956;DHT22;978;48.314;11.562;2023-07-20T16:14:06;23.50;82.60
1956;DHT22;978;48.314;11.562;2023-07-20T16:16:35;23.50;82.60
1956;DHT22;978;48.314;11.562;2023-07-20T16:19:03;23.40;82.60